Kendrick, Oklahoma
Current Conditions -  °F | °C
As of 1:35 AM on Thursday 23 Oct 2014 (Local Time) from KCQB Reporting Station
Overcast Overcast  
Wind Chill: 64°   Ceiling: 6500
Heat Index: 64°   Visibility: 10mi
Dew Point: 64°   Wind: 3mph
Humidity: 100%   Direction: 180°S
Pressure: 30.12"   Gusts: NA
Location:  35.8204°N, 96.7126°W
Report Text: KCQB 230635Z AUTO 18003KT 10SM OVC065 18/18 A3012 RMK AO2
Loading
Personal Weather Stations






























Interactive Weather Map
Tropical Storm Tracking
New forecast layout! Learn more

10-Day Weather Forecast

Advertisements
Track Severe Weather on mobile